New Hagerstown, Ohio
Current Conditions -  °F | °C
As of 6:53 AM on Monday 22 Dec 2014 (Local Time) from KPHD Reporting Station
Haze Haze  
Wind Chill: 21°   Ceiling: Unl
Heat Index: 21°   Visibility: 6mi
Dew Point: 17°   Wind: 0mph
Humidity: 85%   Direction: NA
Pressure: 30.11"   Gusts: NA
Location:  40.4357°N, 81.1746°W
Report Text: KPHD 221153Z AUTO 00000KT 6SM BR CLR M06/M08 A3011 RMK AO2 SLP208 I1000 I6001 T10611083 11056 21067 56002
Loading
Personal Weather Stations






























Interactive Weather Map New forecast layout! Learn more

10-Day Weather Forecast

Advertisements
Track Severe Weather on mobile